sensor_id;sensor_type;location;lat;lon;timestamp;temperature;humidity
59075;DHT22;44860;53.020;6.738;2022-08-19T00:01:23;15.80;99.90
59075;DHT22;44860;53.020;6.738;2022-08-19T00:03:49;15.80;99.90
59075;DHT22;44860;53.020;6.738;2022-08-19T00:06:15;15.80;99.90
59075;DHT22;44860;53.020;6.738;2022-08-19T00:08:41;15.80;99.90
59075;DHT22;44860;53.020;6.738;2022-08-19T00:11:07;15.80;99.90
59075;DHT22;44860;53.020;6.738;2022-08-19T00:13:33;15.80;99.90
59075;DHT22;44860;53.020;6.738;2022-08-19T00:15:59;15.70;99.90
59075;DHT22;44860;53.020;6.738;2022-08-19T00:18:26;15.70;99.90
59075;DHT22;44860;53.020;6.738;2022-08-19T00:20:52;15.70;99.90
59075;DHT22;44860;53.020;6.738;2022-08-19T00:23:18;15.70;99.90
59075;DHT22;44860;53.020;6.738;2022-08-19T00:25:44;15.60;99.90
59075;DHT22;44860;53.020;6.738;2022-08-19T00:28:10;15.60;99.90
59075;DHT22;44860;53.020;6.738;2022-08-19T00:30:36;15.70;99.90
59075;DHT22;44860;53.020;6.738;2022-08-19T00:33:02;15.60;99.90
59075;DHT22;44860;53.020;6.738;2022-08-19T00:35:28;15.60;99.90
59075;DHT22;44860;53.020;6.738;2022-08-19T00:37:54;15.60;99.90
59075;DHT22;44860;53.020;6.738;2022-08-19T00:40:20;15.60;99.90
59075;DHT22;44860;53.020;6.738;2022-08-19T00:42:46;15.60;99.90
59075;DHT22;44860;53.020;6.738;2022-08-19T00:45:16;15.50;99.90
59075;DHT22;44860;53.020;6.738;2022-08-19T00:47:43;15.50;99.90
59075;DHT22;44860;53.020;6.738;2022-08-19T00:50:10;15.50;99.90
59075;DHT22;44860;53.020;6.738;2022-08-19T00:52:39;15.50;99.90
59075;DHT22;44860;53.020;6.738;2022-08-19T00:55:13;15.50;99.90
59075;DHT22;44860;53.020;6.738;2022-08-19T00:57:44;15.50;99.90
59075;DHT22;44860;53.020;6.738;2022-08-19T01:00:15;15.40;99.90
59075;DHT22;44860;53.020;6.738;2022-08-19T01:02:42;15.40;99.90
59075;DHT22;44860;53.020;6.738;2022-08-19T01:05:14;15.40;99.90
59075;DHT22;44860;53.020;6.738;2022-08-19T01:07:40;15.40;99.90
59075;DHT22;44860;53.020;6.738;2022-08-19T01:10:10;15.30;99.90
59075;DHT22;44860;53.020;6.738;2022-08-19T01:12:38;15.30;99.90
59075;DHT22;44860;53.020;6.738;2022-08-19T01:15:06;15.30;99.90
59075;DHT22;44860;53.020;6.738;2022-08-19T01:17:33;15.20;99.90
59075;DHT22;44860;53.020;6.738;2022-08-19T01:20:00;15.20;99.90
59075;DHT22;44860;53.020;6.738;2022-08-19T01:22:38;15.20;99.90
59075;DHT22;44860;53.020;6.738;2022-08-19T01:25:05;15.20;99.90
59075;DHT22;44860;53.020;6.738;2022-08-19T01:27:40;15.20;99.90
59075;DHT22;44860;53.020;6.738;2022-08-19T01:30:09;15.20;99.90
59075;DHT22;44860;53.020;6.738;2022-08-19T01:32:34;15.20;99.90
59075;DHT22;44860;53.020;6.738;2022-08-19T01:35:02;15.20;99.90
59075;DHT22;44860;53.020;6.738;2022-08-19T01:37:29;15.10;99.90
59075;DHT22;44860;53.020;6.738;2022-08-19T01:39:55;15.10;99.90
59075;DHT22;44860;53.020;6.738;2022-08-19T01:42:21;15.10;99.90
59075;DHT22;44860;53.020;6.738;2022-08-19T01:44:47;15.00;99.90
59075;DHT22;44860;53.020;6.738;2022-08-19T01:47:14;15.00;99.90
59075;DHT22;44860;53.020;6.738;2022-08-19T01:49:40;15.00;99.90
59075;DHT22;44860;53.020;6.738;2022-08-19T01:52:05;15.00;99.90
59075;DHT22;44860;53.020;6.738;2022-08-19T01:54:31;15.00;99.90
59075;DHT22;44860;53.020;6.738;2022-08-19T01:57:05;15.00;99.90
59075;DHT22;44860;53.020;6.738;2022-08-19T01:59:32;14.90;99.90
59075;DHT22;44860;53.020;6.738;2022-08-19T02:01:59;14.90;99.90
59075;DHT22;44860;53.020;6.738;2022-08-19T02:04:24;14.90;99.90
59075;DHT22;44860;53.020;6.738;2022-08-19T02:06:52;14.90;99.90
59075;DHT22;44860;53.020;6.738;2022-08-19T02:09:18;14.90;99.90
59075;DHT22;44860;53.020;6.738;2022-08-19T02:11:43;14.80;99.90
59075;DHT22;44860;53.020;6.738;2022-08-19T02:14:09;14.80;99.90
59075;DHT22;44860;53.020;6.738;2022-08-19T02:16:36;14.80;99.90
59075;DHT22;44860;53.020;6.738;2022-08-19T02:19:02;14.80;99.90
59075;DHT22;44860;53.020;6.738;2022-08-19T02:21:29;14.80;99.90
59075;DHT22;44860;53.020;6.738;2022-08-19T02:23:55;14.70;99.90
59075;DHT22;44860;53.020;6.738;2022-08-19T02:26:21;14.70;99.90
59075;DHT22;44860;53.020;6.738;2022-08-19T02:28:47;14.70;99.90
59075;DHT22;44860;53.020;6.738;2022-08-19T02:31:17;14.70;99.90
59075;DHT22;44860;53.020;6.738;2022-08-19T02:33:43;14.70;99.90
59075;DHT22;44860;53.020;6.738;2022-08-19T02:36:12;14.60;99.90
59075;DHT22;44860;53.020;6.738;2022-08-19T02:38:38;14.70;99.90
59075;DHT22;44860;53.020;6.738;2022-08-19T02:41:09;14.70;99.90
59075;DHT22;44860;53.020;6.738;2022-08-19T02:43:36;14.70;99.90
59075;DHT22;44860;53.020;6.738;2022-08-19T02:46:15;14.70;99.90
59075;DHT22;44860;53.020;6.738;2022-08-19T02:48:54;14.60;99.90
59075;DHT22;44860;53.020;6.738;2022-08-19T02:51:31;14.60;99.90
59075;DHT22;44860;53.020;6.738;2022-08-19T02:53:57;14.70;99.90
59075;DHT22;44860;53.020;6.738;2022-08-19T02:56:26;14.60;99.90
59075;DHT22;44860;53.020;6.738;2022-08-19T02:58:53;14.60;99.90
59075;DHT22;44860;53.020;6.738;2022-08-19T03:01:30;14.60;99.90
59075;DHT22;44860;53.020;6.738;2022-08-19T03:03:57;14.60;99.90
59075;DHT22;44860;53.020;6.738;2022-08-19T03:06:24;14.70;99.90
59075;DHT22;44860;53.020;6.738;2022-08-19T03:08:50;14.60;99.90
59075;DHT22;44860;53.020;6.738;2022-08-19T03:11:19;14.70;99.90
59075;DHT22;44860;53.020;6.738;2022-08-19T03:13:46;14.60;99.90
59075;DHT22;44860;53.020;6.738;2022-08-19T03:16:12;14.60;99.90
59075;DHT22;44860;53.020;6.738;2022-08-19T03:18:38;14.60;99.90
59075;DHT22;44860;53.020;6.738;2022-08-19T03:21:04;14.60;99.90
59075;DHT22;44860;53.020;6.738;2022-08-19T03:23:30;14.60;99.90
59075;DHT22;44860;53.020;6.738;2022-08-19T03:25:55;14.60;99.90
59075;DHT22;44860;53.020;6.738;2022-08-19T03:28:21;14.50;99.90
59075;DHT22;44860;53.020;6.738;2022-08-19T03:31:07;14.50;99.90
59075;DHT22;44860;53.020;6.738;2022-08-19T03:33:34;14.50;99.90
59075;DHT22;44860;53.020;6.738;2022-08-19T03:36:15;14.50;99.90
59075;DHT22;44860;53.020;6.738;2022-08-19T03:38:48;14.50;99.90
59075;DHT22;44860;53.020;6.738;2022-08-19T03:41:21;14.50;99.90
59075;DHT22;44860;53.020;6.738;2022-08-19T03:43:48;14.50;99.90
59075;DHT22;44860;53.020;6.738;2022-08-19T03:46:17;14.40;99.90
59075;DHT22;44860;53.020;6.738;2022-08-19T03:48:46;14.50;99.90
59075;DHT22;44860;53.020;6.738;2022-08-19T03:51:21;14.50;99.90
59075;DHT22;44860;53.020;6.738;2022-08-19T03:53:47;14.50;99.90
59075;DHT22;44860;53.020;6.738;2022-08-19T03:56:13;14.40;99.90
59075;DHT22;44860;53.020;6.738;2022-08-19T03:58:39;14.50;99.90
59075;DHT22;44860;53.020;6.738;2022-08-19T04:01:11;14.50;99.90
59075;DHT22;44860;53.020;6.738;2022-08-19T04:03:38;14.60;99.90
59075;DHT22;44860;53.020;6.738;2022-08-19T04:06:15;14.60;99.90
59075;DHT22;44860;53.020;6.738;2022-08-19T04:08:42;14.60;99.90
59075;DHT22;44860;53.020;6.738;2022-08-19T04:11:10;14.50;99.90
59075;DHT22;44860;53.020;6.738;2022-08-19T04:13:36;14.50;99.90
59075;DHT22;44860;53.020;6.738;2022-08-19T04:16:01;14.50;99.90
59075;DHT22;44860;53.020;6.738;2022-08-19T04:18:27;14.40;99.90
59075;DHT22;44860;53.020;6.738;2022-08-19T04:20:55;14.40;99.90
59075;DHT22;44860;53.020;6.738;2022-08-19T04:23:20;14.40;99.90
59075;DHT22;44860;53.020;6.738;2022-08-19T04:25:46;14.40;99.90
59075;DHT22;44860;53.020;6.738;2022-08-19T04:28:12;14.40;99.90
59075;DHT22;44860;53.020;6.738;2022-08-19T04:30:44;14.40;99.90
59075;DHT22;44860;53.020;6.738;2022-08-19T04:33:12;14.40;99.90
59075;DHT22;44860;53.020;6.738;2022-08-19T04:35:44;14.30;99.90
59075;DHT22;44860;53.020;6.738;2022-08-19T04:38:10;14.30;99.90
59075;DHT22;44860;53.020;6.738;2022-08-19T04:40:47;14.30;99.90
59075;DHT22;44860;53.020;6.738;2022-08-19T04:43:33;14.30;99.90
59075;DHT22;44860;53.020;6.738;2022-08-19T04:46:05;14.30;99.90
59075;DHT22;44860;53.020;6.738;2022-08-19T04:48:31;14.30;99.90
59075;DHT22;44860;53.020;6.738;2022-08-19T04:50:58;14.30;99.90
59075;DHT22;44860;53.020;6.738;2022-08-19T04:53:34;14.30;99.90
59075;DHT22;44860;53.020;6.738;2022-08-19T04:56:07;14.40;99.90
59075;DHT22;44860;53.020;6.738;2022-08-19T04:58:34;14.40;99.90
59075;DHT22;44860;53.020;6.738;2022-08-19T05:01:05;14.40;99.90
59075;DHT22;44860;53.020;6.738;2022-08-19T05:03:31;14.40;99.90
59075;DHT22;44860;53.020;6.738;2022-08-19T05:06:07;14.40;99.90
59075;DHT22;44860;53.020;6.738;2022-08-19T05:08:35;14.40;99.90
59075;DHT22;44860;53.020;6.738;2022-08-19T05:11:08;14.40;99.90
59075;DHT22;44860;53.020;6.738;2022-08-19T05:13:36;14.50;99.90
59075;DHT22;44860;53.020;6.738;2022-08-19T05:16:02;14.50;99.90
59075;DHT22;44860;53.020;6.738;2022-08-19T05:18:29;14.60;99.90
59075;DHT22;44860;53.020;6.738;2022-08-19T05:21:16;14.60;99.90
59075;DHT22;44860;53.020;6.738;2022-08-19T05:24:01;14.70;99.90
59075;DHT22;44860;53.020;6.738;2022-08-19T05:26:30;14.70;99.90
59075;DHT22;44860;53.020;6.738;2022-08-19T05:28:56;14.70;99.90
59075;DHT22;44860;53.020;6.738;2022-08-19T05:31:21;14.70;99.90
59075;DHT22;44860;53.020;6.738;2022-08-19T05:33:47;14.70;99.90
59075;DHT22;44860;53.020;6.738;2022-08-19T05:36:13;14.70;99.90
59075;DHT22;44860;53.020;6.738;2022-08-19T05:38:39;14.80;99.90
59075;DHT22;44860;53.020;6.738;2022-08-19T05:41:09;14.80;99.90
59075;DHT22;44860;53.020;6.738;2022-08-19T05:43:35;14.80;99.90
59075;DHT22;44860;53.020;6.738;2022-08-19T05:46:03;14.80;99.90
59075;DHT22;44860;53.020;6.738;2022-08-19T05:48:30;14.90;99.90
59075;DHT22;44860;53.020;6.738;2022-08-19T05:50:56;14.90;99.90
59075;DHT22;44860;53.020;6.738;2022-08-19T05:53:23;15.00;99.90
59075;DHT22;44860;53.020;6.738;2022-08-19T05:55:51;15.00;99.90
59075;DHT22;44860;53.020;6.738;2022-08-19T05:58:16;15.10;99.90
59075;DHT22;44860;53.020;6.738;2022-08-19T06:00:43;15.20;99.90
59075;DHT22;44860;53.020;6.738;2022-08-19T06:03:12;15.30;99.90
59075;DHT22;44860;53.020;6.738;2022-08-19T06:05:38;15.30;99.90
59075;DHT22;44860;53.020;6.738;2022-08-19T06:08:03;15.40;99.90
59075;DHT22;44860;53.020;6.738;2022-08-19T06:10:29;15.40;99.90
59075;DHT22;44860;53.020;6.738;2022-08-19T06:12:55;15.50;99.90
59075;DHT22;44860;53.020;6.738;2022-08-19T06:15:21;15.60;99.90
59075;DHT22;44860;53.020;6.738;2022-08-19T06:17:51;15.70;99.90
59075;DHT22;44860;53.020;6.738;2022-08-19T06:20:17;15.70;99.90
59075;DHT22;44860;53.020;6.738;2022-08-19T06:22:46;15.90;99.90
59075;DHT22;44860;53.020;6.738;2022-08-19T06:25:18;15.90;99.90
59075;DHT22;44860;53.020;6.738;2022-08-19T06:27:44;16.00;99.90
59075;DHT22;44860;53.020;6.738;2022-08-19T06:30:10;16.10;99.90
59075;DHT22;44860;53.020;6.738;2022-08-19T06:32:37;16.30;99.90
59075;DHT22;44860;53.020;6.738;2022-08-19T06:35:03;16.40;99.90
59075;DHT22;44860;53.020;6.738;2022-08-19T06:37:29;16.50;99.90
59075;DHT22;44860;53.020;6.738;2022-08-19T06:39:55;16.60;99.90
59075;DHT22;44860;53.020;6.738;2022-08-19T06:42:21;16.70;99.90
59075;DHT22;44860;53.020;6.738;2022-08-19T06:44:47;16.70;99.90
59075;DHT22;44860;53.020;6.738;2022-08-19T06:47:19;16.80;99.90
59075;DHT22;44860;53.020;6.738;2022-08-19T06:49:49;16.90;99.90
59075;DHT22;44860;53.020;6.738;2022-08-19T06:52:14;17.00;99.90
59075;DHT22;44860;53.020;6.738;2022-08-19T06:54:41;17.20;99.90
59075;DHT22;44860;53.020;6.738;2022-08-19T06:57:08;17.30;99.90
59075;DHT22;44860;53.020;6.738;2022-08-19T06:59:38;17.40;99.90
59075;DHT22;44860;53.020;6.738;2022-08-19T07:02:05;17.50;99.90
59075;DHT22;44860;53.020;6.738;2022-08-19T07:04:33;17.60;99.90
59075;DHT22;44860;53.020;6.738;2022-08-19T07:07:10;17.70;99.90
59075;DHT22;44860;53.020;6.738;2022-08-19T07:09:39;17.80;99.90
59075;DHT22;44860;53.020;6.738;2022-08-19T07:12:08;17.90;99.90
59075;DHT22;44860;53.020;6.738;2022-08-19T07:14:37;18.00;99.90
59075;DHT22;44860;53.020;6.738;2022-08-19T07:17:05;18.10;99.90
59075;DHT22;44860;53.020;6.738;2022-08-19T07:19:31;18.20;99.90
59075;DHT22;44860;53.020;6.738;2022-08-19T07:22:03;18.30;99.90
59075;DHT22;44860;53.020;6.738;2022-08-19T07:24:29;18.40;99.90
59075;DHT22;44860;53.020;6.738;2022-08-19T07:26:59;18.60;99.90
59075;DHT22;44860;53.020;6.738;2022-08-19T07:29:31;18.70;99.90
59075;DHT22;44860;53.020;6.738;2022-08-19T07:31:59;18.80;99.90
59075;DHT22;44860;53.020;6.738;2022-08-19T07:34:27;18.90;99.90
59075;DHT22;44860;53.020;6.738;2022-08-19T07:36:54;19.00;99.90
59075;DHT22;44860;53.020;6.738;2022-08-19T07:39:25;19.00;99.90
59075;DHT22;44860;53.020;6.738;2022-08-19T07:41:52;19.10;99.90
59075;DHT22;44860;53.020;6.738;2022-08-19T07:44:19;19.30;99.90
59075;DHT22;44860;53.020;6.738;2022-08-19T07:46:48;19.40;99.90
59075;DHT22;44860;53.020;6.738;2022-08-19T07:49:15;19.50;99.90
59075;DHT22;44860;53.020;6.738;2022-08-19T07:52:06;19.60;99.90
59075;DHT22;44860;53.020;6.738;2022-08-19T07:54:36;19.60;99.90
59075;DHT22;44860;53.020;6.738;2022-08-19T07:57:02;19.70;99.90
59075;DHT22;44860;53.020;6.738;2022-08-19T07:59:29;19.80;99.90
59075;DHT22;44860;53.020;6.738;2022-08-19T08:01:55;19.90;99.90
59075;DHT22;44860;53.020;6.738;2022-08-19T08:04:21;20.00;99.90
59075;DHT22;44860;53.020;6.738;2022-08-19T08:07:07;20.00;99.90
59075;DHT22;44860;53.020;6.738;2022-08-19T08:09:52;20.10;99.90
59075;DHT22;44860;53.020;6.738;2022-08-19T08:12:22;20.10;99.90
59075;DHT22;44860;53.020;6.738;2022-08-19T08:14:53;20.30;99.90
59075;DHT22;44860;53.020;6.738;2022-08-19T08:17:22;20.40;99.90
59075;DHT22;44860;53.020;6.738;2022-08-19T08:19:48;20.50;99.90
59075;DHT22;44860;53.020;6.738;2022-08-19T08:22:20;20.60;99.90
59075;DHT22;44860;53.020;6.738;2022-08-19T08:25:11;20.60;99.90
59075;DHT22;44860;53.020;6.738;2022-08-19T08:27:38;20.70;99.90
59075;DHT22;44860;53.020;6.738;2022-08-19T08:30:07;20.80;99.90
59075;DHT22;44860;53.020;6.738;2022-08-19T08:32:38;20.90;99.90
59075;DHT22;44860;53.020;6.738;2022-08-19T08:35:07;21.00;99.90
59075;DHT22;44860;53.020;6.738;2022-08-19T08:37:34;21.10;99.90
59075;DHT22;44860;53.020;6.738;2022-08-19T08:40:07;21.10;99.90
59075;DHT22;44860;53.020;6.738;2022-08-19T08:42:40;21.20;99.90
59075;DHT22;44860;53.020;6.738;2022-08-19T08:45:13;21.30;99.90
59075;DHT22;44860;53.020;6.738;2022-08-19T08:47:44;21.40;99.90
59075;DHT22;44860;53.020;6.738;2022-08-19T08:50:19;21.40;99.90
59075;DHT22;44860;53.020;6.738;2022-08-19T08:52:53;21.60;99.90
59075;DHT22;44860;53.020;6.738;2022-08-19T08:55:25;21.60;99.90
59075;DHT22;44860;53.020;6.738;2022-08-19T08:58:08;21.70;99.90
59075;DHT22;44860;53.020;6.738;2022-08-19T09:00:39;21.70;99.90
59075;DHT22;44860;53.020;6.738;2022-08-19T09:03:26;21.80;99.90
59075;DHT22;44860;53.020;6.738;2022-08-19T09:06:43;21.80;99.90
59075;DHT22;44860;53.020;6.738;2022-08-19T09:09:03;21.90;99.90
59075;DHT22;44860;53.020;6.738;2022-08-19T09:14:09;22.00;99.90
59075;DHT22;44860;53.020;6.738;2022-08-19T09:16:40;22.10;99.90
59075;DHT22;44860;53.020;6.738;2022-08-19T09:19:07;22.10;99.90
59075;DHT22;44860;53.020;6.738;2022-08-19T09:21:33;22.20;99.90
59075;DHT22;44860;53.020;6.738;2022-08-19T09:24:01;22.20;99.90
59075;DHT22;44860;53.020;6.738;2022-08-19T09:26:27;22.30;99.90
59075;DHT22;44860;53.020;6.738;2022-08-19T09:28:53;22.50;99.90
59075;DHT22;44860;53.020;6.738;2022-08-19T09:31:22;22.60;99.90
59075;DHT22;44860;53.020;6.738;2022-08-19T09:33:49;22.70;99.90
59075;DHT22;44860;53.020;6.738;2022-08-19T09:36:17;22.70;99.90
59075;DHT22;44860;53.020;6.738;2022-08-19T09:38:44;22.70;99.90
59075;DHT22;44860;53.020;6.738;2022-08-19T09:41:16;22.80;99.90
59075;DHT22;44860;53.020;6.738;2022-08-19T09:43:45;22.80;99.90
59075;DHT22;44860;53.020;6.738;2022-08-19T09:46:11;22.80;99.90
59075;DHT22;44860;53.020;6.738;2022-08-19T09:48:39;22.90;99.90
59075;DHT22;44860;53.020;6.738;2022-08-19T09:51:08;23.00;99.90
59075;DHT22;44860;53.020;6.738;2022-08-19T09:53:35;23.10;99.90
59075;DHT22;44860;53.020;6.738;2022-08-19T09:56:03;23.20;99.90
59075;DHT22;44860;53.020;6.738;2022-08-19T09:58:29;23.30;99.90
59075;DHT22;44860;53.020;6.738;2022-08-19T10:00:56;23.40;99.90
59075;DHT22;44860;53.020;6.738;2022-08-19T10:03:23;23.40;99.90
59075;DHT22;44860;53.020;6.738;2022-08-19T10:05:49;23.60;99.90
59075;DHT22;44860;53.020;6.738;2022-08-19T10:08:24;23.50;99.90
59075;DHT22;44860;53.020;6.738;2022-08-19T10:10:51;23.50;99.90
59075;DHT22;44860;53.020;6.738;2022-08-19T10:13:20;23.60;99.90
59075;DHT22;44860;53.020;6.738;2022-08-19T10:15:50;23.70;99.90
59075;DHT22;44860;53.020;6.738;2022-08-19T10:18:17;23.70;99.90
59075;DHT22;44860;53.020;6.738;2022-08-19T10:20:44;23.90;99.90
59075;DHT22;44860;53.020;6.738;2022-08-19T10:23:11;24.00;99.90
59075;DHT22;44860;53.020;6.738;2022-08-19T10:28:05;24.10;99.90
59075;DHT22;44860;53.020;6.738;2022-08-19T10:30:35;24.20;99.90
59075;DHT22;44860;53.020;6.738;2022-08-19T10:33:01;24.30;99.90
59075;DHT22;44860;53.020;6.738;2022-08-19T10:35:27;24.30;99.90
59075;DHT22;44860;53.020;6.738;2022-08-19T10:37:55;24.40;99.90
59075;DHT22;44860;53.020;6.738;2022-08-19T10:40:25;24.40;99.90
59075;DHT22;44860;53.020;6.738;2022-08-19T10:42:51;24.40;99.90
59075;DHT22;44860;53.020;6.738;2022-08-19T10:45:17;24.40;99.90
59075;DHT22;44860;53.020;6.738;2022-08-19T10:47:43;24.50;99.90
59075;DHT22;44860;53.020;6.738;2022-08-19T10:50:09;24.50;99.90
59075;DHT22;44860;53.020;6.738;2022-08-19T10:52:53;24.50;99.90
59075;DHT22;44860;53.020;6.738;2022-08-19T10:55:22;24.60;99.90
59075;DHT22;44860;53.020;6.738;2022-08-19T10:58:14;24.70;99.00
59075;DHT22;44860;53.020;6.738;2022-08-19T11:00:41;25.00;98.20
59075;DHT22;44860;53.020;6.738;2022-08-19T11:03:08;25.00;99.90
59075;DHT22;44860;53.020;6.738;2022-08-19T11:05:34;25.10;97.80
59075;DHT22;44860;53.020;6.738;2022-08-19T11:07:59;25.20;98.50
59075;DHT22;44860;53.020;6.738;2022-08-19T11:10:25;25.20;96.10
59075;DHT22;44860;53.020;6.738;2022-08-19T11:12:51;25.30;97.00
59075;DHT22;44860;53.020;6.738;2022-08-19T11:15:21;25.40;96.70
59075;DHT22;44860;53.020;6.738;2022-08-19T11:17:47;25.50;95.40
59075;DHT22;44860;53.020;6.738;2022-08-19T11:20:14;25.70;95.00
59075;DHT22;44860;53.020;6.738;2022-08-19T11:22:41;25.70;91.70
59075;DHT22;44860;53.020;6.738;2022-08-19T11:25:09;25.80;90.40
59075;DHT22;44860;53.020;6.738;2022-08-19T11:27:42;25.80;90.60
59075;DHT22;44860;53.020;6.738;2022-08-19T11:30:09;25.90;91.60
59075;DHT22;44860;53.020;6.738;2022-08-19T11:32:35;25.90;87.70
59075;DHT22;44860;53.020;6.738;2022-08-19T11:37:37;26.20;90.90
59075;DHT22;44860;53.020;6.738;2022-08-19T11:40:05;26.20;84.60
59075;DHT22;44860;53.020;6.738;2022-08-19T11:42:31;26.10;83.60
59075;DHT22;44860;53.020;6.738;2022-08-19T11:45:15;26.10;81.30
59075;DHT22;44860;53.020;6.738;2022-08-19T11:47:41;26.10;80.40
59075;DHT22;44860;53.020;6.738;2022-08-19T11:50:07;26.00;79.40
59075;DHT22;44860;53.020;6.738;2022-08-19T11:52:32;25.90;80.50
59075;DHT22;44860;53.020;6.738;2022-08-19T11:54:58;25.90;77.20
59075;DHT22;44860;53.020;6.738;2022-08-19T11:57:24;26.00;78.90
59075;DHT22;44860;53.020;6.738;2022-08-19T11:59:51;26.00;76.80
59075;DHT22;44860;53.020;6.738;2022-08-19T12:02:17;26.20;74.70
59075;DHT22;44860;53.020;6.738;2022-08-19T12:04:43;26.30;77.30
59075;DHT22;44860;53.020;6.738;2022-08-19T12:07:08;26.30;79.30
59075;DHT22;44860;53.020;6.738;2022-08-19T12:09:34;26.30;78.80
59075;DHT22;44860;53.020;6.738;2022-08-19T12:12:00;26.20;78.50
59075;DHT22;44860;53.020;6.738;2022-08-19T12:14:28;26.10;79.10
59075;DHT22;44860;53.020;6.738;2022-08-19T12:16:57;26.10;80.40
59075;DHT22;44860;53.020;6.738;2022-08-19T12:19:23;26.10;78.60
59075;DHT22;44860;53.020;6.738;2022-08-19T12:21:50;26.10;80.40
59075;DHT22;44860;53.020;6.738;2022-08-19T12:24:16;26.00;78.30
59075;DHT22;44860;53.020;6.738;2022-08-19T12:26:48;26.10;80.60
59075;DHT22;44860;53.020;6.738;2022-08-19T12:29:14;26.20;81.20
59075;DHT22;44860;53.020;6.738;2022-08-19T12:31:40;26.20;80.00
59075;DHT22;44860;53.020;6.738;2022-08-19T12:34:05;26.20;81.90
59075;DHT22;44860;53.020;6.738;2022-08-19T12:36:31;26.30;80.20
59075;DHT22;44860;53.020;6.738;2022-08-19T12:38:58;26.40;75.10
59075;DHT22;44860;53.020;6.738;2022-08-19T12:41:25;26.40;74.90
59075;DHT22;44860;53.020;6.738;2022-08-19T12:43:51;26.40;72.80
59075;DHT22;44860;53.020;6.738;2022-08-19T12:46:18;26.40;72.10
59075;DHT22;44860;53.020;6.738;2022-08-19T12:48:44;26.50;76.80
59075;DHT22;44860;53.020;6.738;2022-08-19T12:51:16;26.50;76.80
59075;DHT22;44860;53.020;6.738;2022-08-19T12:53:43;26.50;74.60
59075;DHT22;44860;53.020;6.738;2022-08-19T12:56:11;26.50;73.80
59075;DHT22;44860;53.020;6.738;2022-08-19T12:58:38;26.40;70.80
59075;DHT22;44860;53.020;6.738;2022-08-19T13:01:07;26.40;70.70
59075;DHT22;44860;53.020;6.738;2022-08-19T13:03:33;26.30;67.80
59075;DHT22;44860;53.020;6.738;2022-08-19T13:05:59;26.20;64.80
59075;DHT22;44860;53.020;6.738;2022-08-19T13:08:24;26.20;62.20
59075;DHT22;44860;53.020;6.738;2022-08-19T13:10:50;26.20;61.50
59075;DHT22;44860;53.020;6.738;2022-08-19T13:13:16;26.20;61.70
59075;DHT22;44860;53.020;6.738;2022-08-19T13:15:42;26.20;63.90
59075;DHT22;44860;53.020;6.738;2022-08-19T13:18:10;26.50;65.40
59075;DHT22;44860;53.020;6.738;2022-08-19T13:20:37;26.70;62.80
59075;DHT22;44860;53.020;6.738;2022-08-19T13:23:04;26.70;58.50
59075;DHT22;44860;53.020;6.738;2022-08-19T13:25:30;26.70;59.30
59075;DHT22;44860;53.020;6.738;2022-08-19T13:27:56;26.70;59.80
59075;DHT22;44860;53.020;6.738;2022-08-19T13:30:22;26.60;59.50
59075;DHT22;44860;53.020;6.738;2022-08-19T13:33:08;26.60;60.40
59075;DHT22;44860;53.020;6.738;2022-08-19T13:35:49;26.40;61.10
59075;DHT22;44860;53.020;6.738;2022-08-19T13:38:18;26.50;61.50
59075;DHT22;44860;53.020;6.738;2022-08-19T13:40:46;26.50;61.20
59075;DHT22;44860;53.020;6.738;2022-08-19T13:43:13;26.60;58.80
59075;DHT22;44860;53.020;6.738;2022-08-19T13:45:39;26.60;60.10
59075;DHT22;44860;53.020;6.738;2022-08-19T13:48:06;26.60;55.60
59075;DHT22;44860;53.020;6.738;2022-08-19T13:50:37;26.60;54.90
59075;DHT22;44860;53.020;6.738;2022-08-19T13:53:03;26.60;52.50
59075;DHT22;44860;53.020;6.738;2022-08-19T13:55:29;26.60;52.30
59075;DHT22;44860;53.020;6.738;2022-08-19T13:57:58;26.50;54.60
59075;DHT22;44860;53.020;6.738;2022-08-19T14:00:25;26.60;55.40
59075;DHT22;44860;53.020;6.738;2022-08-19T14:02:54;26.50;55.60
59075;DHT22;44860;53.020;6.738;2022-08-19T14:05:21;26.50;55.70
59075;DHT22;44860;53.020;6.738;2022-08-19T14:07:47;26.50;60.50
59075;DHT22;44860;53.020;6.738;2022-08-19T14:10:14;26.60;68.20
59075;DHT22;44860;53.020;6.738;2022-08-19T14:12:40;26.40;73.90
59075;DHT22;44860;53.020;6.738;2022-08-19T14:15:07;26.20;78.10
59075;DHT22;44860;53.020;6.738;2022-08-19T14:17:34;26.00;83.50
59075;DHT22;44860;53.020;6.738;2022-08-19T14:20:05;25.80;88.60
59075;DHT22;44860;53.020;6.738;2022-08-19T14:22:35;25.60;91.30
59075;DHT22;44860;53.020;6.738;2022-08-19T14:25:00;25.50;92.30
59075;DHT22;44860;53.020;6.738;2022-08-19T14:27:26;25.50;92.50
59075;DHT22;44860;53.020;6.738;2022-08-19T14:29:52;25.40;92.80
59075;DHT22;44860;53.020;6.738;2022-08-19T14:32:18;25.30;93.00
59075;DHT22;44860;53.020;6.738;2022-08-19T14:34:44;25.30;93.40
59075;DHT22;44860;53.020;6.738;2022-08-19T14:37:12;25.20;93.80
59075;DHT22;44860;53.020;6.738;2022-08-19T14:39:40;25.10;94.00
59075;DHT22;44860;53.020;6.738;2022-08-19T14:42:10;25.10;94.10
59075;DHT22;44860;53.020;6.738;2022-08-19T14:44:36;25.10;94.50
59075;DHT22;44860;53.020;6.738;2022-08-19T14:47:02;25.00;93.90
59075;DHT22;44860;53.020;6.738;2022-08-19T14:49:28;24.90;94.30
59075;DHT22;44860;53.020;6.738;2022-08-19T14:51:53;24.90;94.30
59075;DHT22;44860;53.020;6.738;2022-08-19T14:54:20;24.80;94.20
59075;DHT22;44860;53.020;6.738;2022-08-19T14:56:45;24.80;94.20
59075;DHT22;44860;53.020;6.738;2022-08-19T14:59:11;24.70;94.60
59075;DHT22;44860;53.020;6.738;2022-08-19T15:01:37;24.70;94.80
59075;DHT22;44860;53.020;6.738;2022-08-19T15:04:03;24.70;94.60
59075;DHT22;44860;53.020;6.738;2022-08-19T15:06:28;24.70;94.10
59075;DHT22;44860;53.020;6.738;2022-08-19T15:08:54;24.70;94.20
59075;DHT22;44860;53.020;6.738;2022-08-19T15:11:23;24.70;93.80
59075;DHT22;44860;53.020;6.738;2022-08-19T15:13:49;24.60;93.80
59075;DHT22;44860;53.020;6.738;2022-08-19T15:16:15;24.60;94.20
59075;DHT22;44860;53.020;6.738;2022-08-19T15:18:41;24.60;95.10
59075;DHT22;44860;53.020;6.738;2022-08-19T15:21:11;24.60;96.00
59075;DHT22;44860;53.020;6.738;2022-08-19T15:23:46;24.50;96.90
59075;DHT22;44860;53.020;6.738;2022-08-19T15:26:13;24.50;97.60
59075;DHT22;44860;53.020;6.738;2022-08-19T15:28:40;24.50;98.20
59075;DHT22;44860;53.020;6.738;2022-08-19T15:31:06;24.50;98.80
59075;DHT22;44860;53.020;6.738;2022-08-19T15:33:33;24.50;98.40
59075;DHT22;44860;53.020;6.738;2022-08-19T15:36:02;24.40;98.70
59075;DHT22;44860;53.020;6.738;2022-08-19T15:38:28;24.40;98.90
59075;DHT22;44860;53.020;6.738;2022-08-19T15:40:54;24.40;98.10
59075;DHT22;44860;53.020;6.738;2022-08-19T15:43:41;24.40;98.40
59075;DHT22;44860;53.020;6.738;2022-08-19T15:46:07;24.40;97.90